Time;durP1;ratioP1;P1;durP2;ratioP2;P2;SDS_P1;SDS_P2;PMS_P1;PMS_P2;Temp;Humidity;BMP_temperature;BMP_pressure;BME280_temperature;BME280_humidity;BME280_pressure;Samples;Min_cycle;Max_cycle;Signal;HPM_P1;HPM_P2
2022/01/24 00:01:05;;;;;;;6.80;4.93;;;;;;;19.10;48.59;101951.88;5023836;28;20068;-48
2022/01/24 00:03:31;;;;;;;7.60;5.45;;;;;;;19.08;48.05;101949.41;5017283;28;20037;-47
2022/01/24 00:05:57;;;;;;;12.43;5.88;;;;;;;19.08;47.77;101951.22;5003471;28;20098;-48
2022/01/24 00:08:22;;;;;;;7.07;5.13;;;;;;;19.07;48.00;101952.22;5016352;28;20042;-42
2022/01/24 00:10:49;;;;;;;10.18;4.53;;;;;;;19.03;48.31;101953.53;5027065;28;20033;-47
2022/01/24 00:16:12;;;;;;;7.10;4.28;;;;;;;18.98;48.44;101956.66;5022448;28;20501;-45
2022/01/24 00:26:53;;;;;;;5.60;4.03;;;;;;;18.90;48.15;101965.38;5014314;28;20060;-52
2022/01/24 00:29:22;;;;;;;8.00;4.28;;;;;;;18.90;47.96;101968.03;5003560;28;20030;-49
2022/01/24 00:31:48;;;;;;;7.93;4.75;;;;;;;18.89;47.88;101963.75;5009808;28;20029;-51
2022/01/24 00:34:15;;;;;;;7.78;4.55;;;;;;;18.93;47.64;101960.75;5022161;28;20566;-45
2022/01/24 00:36:41;;;;;;;8.30;4.95;;;;;;;18.93;47.43;101966.88;5026182;28;20171;-52
2022/01/24 00:39:08;;;;;;;9.43;4.65;;;;;;;18.94;47.21;101967.69;5006124;28;20029;-47
2022/01/24 00:42:30;;;;;;;7.15;4.40;;;;;;;18.94;47.13;101968.53;5019650;28;20030;-49
2022/01/24 00:46:54;;;;;;;6.65;4.63;;;;;;;18.95;47.20;101966.72;5021967;28;20092;-49
2022/01/24 00:54:44;;;;;;;6.80;4.47;;;;;;;18.94;47.08;101962.41;5028873;28;20088;-47
2022/01/24 00:57:11;;;;;;;6.05;4.15;;;;;;;18.92;46.97;101952.03;5027346;28;20502;-49
2022/01/24 00:59:38;;;;;;;6.75;4.40;;;;;;;18.93;47.06;101945.75;5030118;28;20045;-46
2022/01/24 01:02:05;;;;;;;6.30;4.47;;;;;;;18.94;47.05;101949.22;5027804;28;20083;-46
2022/01/24 01:04:41;;;;;;;7.05;4.43;;;;;;;18.93;47.08;101944.91;5023340;28;20595;-47
2022/01/24 01:07:07;;;;;;;5.28;3.95;;;;;;;18.90;47.03;101946.91;5012971;28;20033;-46
2022/01/24 01:20:43;;;;;;;5.32;3.60;;;;;;;18.81;47.42;101962.91;5029045;28;20072;-49
2022/01/24 01:23:09;;;;;;;4.72;3.42;;;;;;;18.80;47.61;101964.72;5024715;28;20030;-48
2022/01/24 01:25:37;;;;;;;3.90;3.03;;;;;;;18.80;47.69;101970.00;5022566;28;20040;-48
2022/01/24 01:28:02;;;;;;;4.57;3.33;;;;;;;18.77;47.78;101967.69;5015059;28;20041;-47
2022/01/24 01:30:37;;;;;;;4.03;2.92;;;;;;;18.76;47.82;101968.69;5018555;28;20029;-47
2022/01/24 01:33:13;;;;;;;4.78;3.20;;;;;;;18.74;47.78;101964.53;5000502;28;20030;-49
2022/01/24 01:57:11;;;;;;;3.58;3.05;;;;;;;18.69;47.21;101948.38;4984538;28;20030;-48
2022/01/24 01:59:37;;;;;;;4.47;3.33;;;;;;;18.70;47.18;101956.13;4985264;28;20026;-53
2022/01/24 02:02:02;;;;;;;4.55;3.75;;;;;;;18.70;47.16;101958.75;4983854;28;20053;-46
2022/01/24 02:04:28;;;;;;;3.88;3.47;;;;;;;18.70;47.21;101950.84;4986963;28;20061;-52
2022/01/24 02:06:53;;;;;;;4.53;3.30;;;;;;;18.70;47.20;101944.75;4986190;28;20053;-51
2022/01/24 02:09:19;;;;;;;4.05;3.03;;;;;;;18.69;47.12;101951.81;4986251;28;20048;-47
2022/01/24 02:11:44;;;;;;;4.43;3.50;;;;;;;18.70;47.22;101947.38;5163456;23;20029;-49
2022/01/24 02:14:16;;;;;;;5.60;3.47;;;;;;;18.68;47.27;101942.25;4988739;28;20034;-45
2022/01/24 02:16:50;;;;;;;7.60;3.30;;;;;;;18.66;47.42;101944.22;4973029;28;20113;-49
2022/01/24 02:24:41;;;;;;;4.07;3.17;;;;;;;18.58;47.38;101931.81;4988981;28;20041;-51
2022/01/24 02:27:08;;;;;;;3.25;2.65;;;;;;;18.57;47.43;101929.31;4987304;28;20034;-54
2022/01/24 02:32:19;;;;;;;3.08;2.22;;;;;;;18.54;47.38;101927.84;4979565;28;20096;-45
2022/01/24 02:34:47;;;;;;;3.58;2.53;;;;;;;18.54;47.41;101929.66;4979759;28;20426;-54
2022/01/24 02:37:17;;;;;;;3.95;2.55;;;;;;;18.53;47.45;101933.28;4989152;28;20034;-48
2022/01/24 02:39:47;;;;;;;3.53;2.20;;;;;;;18.51;47.40;101936.06;4971135;28;20062;-50
2022/01/24 02:53:05;;;;;;;3.28;2.55;;;;;;;18.45;47.30;101938.53;4987532;28;20508;-50
2022/01/24 02:55:32;;;;;;;4.03;2.38;;;;;;;18.45;47.39;101949.06;4970831;28;20041;-50
2022/01/24 02:57:57;;;;;;;4.43;2.20;;;;;;;18.45;47.41;101954.34;4971534;28;20378;-54
2022/01/24 03:00:23;;;;;;;3.17;2.35;;;;;;;18.44;47.33;101957.97;4988037;28;20034;-46
2022/01/24 03:02:49;;;;;;;3.70;2.28;;;;;;;18.46;47.21;101956.00;4979543;28;20104;-43
2022/01/24 03:05:14;;;;;;;4.65;3.20;;;;;;;18.48;47.23;101944.31;4978500;28;20034;-47
2022/01/24 03:07:40;;;;;;;3.70;2.85;;;;;;;18.48;47.07;101948.75;4985897;28;20030;-48
2022/01/24 03:10:13;;;;;;;4.63;3.03;;;;;;;18.49;47.02;101958.31;4984985;28;20110;-49
2022/01/24 03:12:43;;;;;;;3.83;2.83;;;;;;;18.50;46.89;101946.78;4951581;28;20067;-42
2022/01/24 03:15:09;;;;;;;3.25;2.42;;;;;;;18.49;46.97;101948.59;4968151;28;20039;-47
2022/01/24 03:17:35;;;;;;;2.67;2.05;;;;;;;18.49;46.90;101948.59;4969207;28;20475;-47
2022/01/24 03:20:01;;;;;;;3.08;2.35;;;;;;;18.50;46.85;101954.69;4969033;28;20019;-47
2022/01/24 03:22:26;;;;;;;4.22;2.47;;;;;;;18.51;46.95;101961.63;4974118;28;20109;-50
2022/01/24 03:24:52;;;;;;;3.38;2.88;;;;;;;18.50;46.89;101959.97;4988256;28;20100;-48
2022/01/24 03:27:17;;;;;;;4.20;2.75;;;;;;;18.51;46.97;101948.44;4970693;28;20041;-47
2022/01/24 03:29:43;;;;;;;3.78;2.40;;;;;;;18.50;47.03;101952.06;4988216;28;20066;-48
2022/01/24 03:32:08;;;;;;;2.53;2.28;;;;;;;18.50;46.96;101941.50;4988262;28;20069;-46
2022/01/24 03:34:34;;;;;;;3.20;2.58;;;;;;;18.49;47.05;101947.78;4987902;28;20031;-51
2022/01/24 03:36:59;;;;;;;3.95;2.72;;;;;;;18.49;47.06;101945.13;4978995;28;20507;-49
2022/01/24 03:39:25;;;;;;;3.20;2.90;;;;;;;18.49;46.93;101939.84;4967001;28;20038;-43
2022/01/24 03:41:51;;;;;;;2.90;2.22;;;;;;;18.48;46.86;101939.03;4978039;28;20037;-52
2022/01/24 03:44:18;;;;;;;3.55;2.45;;;;;;;18.48;46.94;101938.19;4984441;28;20137;-44
2022/01/24 03:52:09;;;;;;;2.53;1.60;;;;;;;18.42;47.10;101931.78;4985276;28;20472;-45
2022/01/24 03:54:36;;;;;;;2.72;1.92;;;;;;;18.40;46.94;101931.13;4978847;28;20129;-51
2022/01/24 03:57:03;;;;;;;2.80;1.58;;;;;;;18.38;46.94;101940.16;4968374;28;20553;-50
2022/01/24 03:59:32;;;;;;;3.50;2.15;;;;;;;18.35;47.01;101936.03;4972384;28;20049;-50
2022/01/24 04:02:01;;;;;;;3.40;1.85;;;;;;;18.34;46.95;101939.66;4967130;28;20115;-50
2022/01/24 04:04:27;;;;;;;3.00;1.80;;;;;;;18.35;46.90;101935.22;4970461;28;20065;-50
2022/01/24 04:06:53;;;;;;;3.05;2.53;;;;;;;18.34;46.80;101933.56;4968871;28;20023;-52
2022/01/24 04:09:19;;;;;;;2.75;1.98;;;;;;;18.33;46.91;101939.81;4972028;28;20064;-53
2022/01/24 04:11:47;;;;;;;3.50;2.20;;;;;;;18.33;46.98;101937.19;4984743;28;20026;-46
2022/01/24 04:17:05;;;;;;;2.80;2.20;;;;;;;18.34;46.69;101934.38;4985898;28;20042;-53
2022/01/24 04:22:00;;;;;;;3.65;2.17;;;;;;;18.34;46.64;101942.31;4978643;28;20041;-49
2022/01/24 04:24:26;;;;;;;3.60;2.22;;;;;;;18.34;46.62;101936.19;4967695;28;20038;-52
2022/01/24 04:26:52;;;;;;;2.10;1.83;;;;;;;18.34;46.54;101944.13;4950006;28;20508;-41
2022/01/24 04:29:17;;;;;;;2.30;1.65;;;;;;;18.34;46.70;101949.41;4978820;28;20053;-53
2022/01/24 04:31:44;;;;;;;2.30;1.90;;;;;;;18.34;46.68;101952.84;4968470;28;20073;-46
2022/01/24 04:34:10;;;;;;;3.05;1.80;;;;;;;18.33;46.63;101950.38;4955533;28;20042;-50
2022/01/24 04:36:35;;;;;;;2.00;1.80;;;;;;;18.32;46.74;101949.56;4983608;28;20046;-46
2022/01/24 04:39:01;;;;;;;2.90;1.60;;;;;;;18.30;46.69;101948.06;4968394;28;20034;-49
2022/01/24 04:41:34;;;;;;;2.80;2.00;;;;;;;18.28;46.61;101950.03;4968025;28;20082;-48
2022/01/24 04:47:02;;;;;;;2.67;1.58;;;;;;;18.23;46.74;101953.97;4976842;28;20046;-52
2022/01/24 04:52:40;;;;;;;1.90;1.23;;;;;;;18.21;46.73;101961.22;4977867;28;20226;-50
2022/01/24 04:55:06;;;;;;;2.05;1.48;;;;;;;18.19;46.73;101959.72;4968518;28;20093;-48
2022/01/24 04:57:32;;;;;;;2.83;2.13;;;;;;;18.19;46.63;101963.19;4986158;28;20034;-53
2022/01/24 04:59:59;;;;;;;4.68;1.63;;;;;;;18.18;46.61;101961.53;4984724;28;20042;-46
2022/01/24 05:02:26;;;;;;;3.03;1.23;;;;;;;18.19;46.69;101963.19;4984555;28;20058;-51
2022/01/24 05:04:53;;;;;;;2.22;1.50;;;;;;;18.16;46.78;101963.50;4976436;28;20045;-52
2022/01/24 05:07:18;;;;;;;1.60;1.30;;;;;;;18.14;46.72;101962.81;4961121;28;20022;-50
2022/01/24 05:09:59;;;;;;;2.83;1.67;;;;;;;18.12;47.12;101964.78;4977583;28;20375;-48
2022/01/24 05:23:36;;;;;;;3.65;1.27;;;;;;;18.18;47.17;101972.06;4964290;28;20097;-45
2022/01/24 05:26:05;;;;;;;1.98;1.10;;;;;;;18.23;47.32;101972.44;4944192;29;20035;-55
2022/01/24 05:28:32;;;;;;;2.47;1.70;;;;;;;18.28;47.20;101982.50;4955682;28;20479;-51
2022/01/24 05:31:01;;;;;;;2.53;1.30;;;;;;;18.34;47.19;101987.16;4966531;28;20038;-52
2022/01/24 05:33:28;;;;;;;3.42;1.55;;;;;;;18.38;47.14;101990.31;4932400;28;20109;-50
2022/01/24 05:35:53;;;;;;;1.95;1.50;;;;;;;18.42;47.01;101991.66;4948165;28;20031;-48
2022/01/24 05:38:21;;;;;;;5.18;1.73;;;;;;;18.47;47.02;101995.44;4966253;28;20390;-50
2022/01/24 05:40:48;;;;;;;2.63;1.58;;;;;;;18.50;47.03;101997.75;4951820;28;20027;-48
2022/01/24 05:43:14;;;;;;;1.65;1.13;;;;;;;18.54;46.91;102003.53;4965723;28;20447;-53
2022/01/24 05:45:41;;;;;;;2.00;1.20;;;;;;;18.58;47.03;102003.06;4957722;28;20069;-54
2022/01/24 05:48:07;;;;;;;2.70;1.50;;;;;;;18.62;47.26;101998.34;4934020;28;20133;-51
2022/01/24 05:50:33;;;;;;;2.35;1.50;;;;;;;18.67;47.29;102005.78;4952744;28;20278;-46
2022/01/24 05:52:59;;;;;;;3.83;1.58;;;;;;;18.70;47.18;102002.81;4956092;28;20093;-49
2022/01/24 05:55:24;;;;;;;1.40;0.98;;;;;;;18.74;47.10;101997.06;4964945;28;20442;-53
2022/01/24 05:57:53;;;;;;;4.25;1.25;;;;;;;18.77;47.16;101994.09;4967936;28;20445;-45
2022/01/24 06:00:19;;;;;;;1.92;1.40;;;;;;;18.81;47.18;101999.88;4951071;28;20129;-53
2022/01/24 06:02:44;;;;;;;2.25;1.35;;;;;;;18.85;47.15;102006.50;4957405;28;20059;-52
2022/01/24 06:05:10;;;;;;;1.75;1.15;;;;;;;18.87;46.98;102001.88;4952113;28;20162;-49
2022/01/24 06:07:37;;;;;;;1.60;1.40;;;;;;;18.90;47.03;102005.00;4961428;28;20553;-43
2022/01/24 06:10:04;;;;;;;2.30;1.25;;;;;;;18.94;47.16;102004.66;4965317;28;20035;-44
2022/01/24 06:12:30;;;;;;;1.60;1.10;;;;;;;18.97;46.94;102012.28;4965733;28;20734;-48
2022/01/24 06:14:55;;;;;;;2.05;1.10;;;;;;;18.98;46.92;102008.66;4965322;28;20130;-50
2022/01/24 06:17:21;;;;;;;2.15;1.20;;;;;;;19.01;46.89;102010.97;4959150;28;20082;-48
2022/01/24 06:19:46;;;;;;;1.88;1.33;;;;;;;19.03;46.83;102009.00;4957575;28;20545;-51
2022/01/24 06:22:12;;;;;;;1.50;1.13;;;;;;;19.04;46.92;102008.81;4965046;28;20390;-51
2022/01/24 06:24:37;;;;;;;1.77;1.00;;;;;;;19.08;46.64;102009.31;4964406;28;20034;-50
2022/01/24 06:27:03;;;;;;;2.00;1.20;;;;;;;19.11;46.61;102016.94;4961739;28;20023;-48
2022/01/24 06:29:29;;;;;;;1.95;1.35;;;;;;;19.14;46.61;102014.78;4972722;28;20366;-48
2022/01/24 06:31:54;;;;;;;2.20;1.30;;;;;;;19.16;46.71;102019.91;4974728;28;20031;-49
2022/01/24 06:34:20;;;;;;;2.08;1.20;;;;;;;19.18;46.64;102020.56;4984894;28;20029;-51
2022/01/24 06:36:45;;;;;;;2.00;1.48;;;;;;;19.18;46.56;102013.47;4968746;28;20039;-48
2022/01/24 06:39:13;;;;;;;1.67;1.10;;;;;;;19.21;46.48;102022.91;4958410;28;20442;-50
2022/01/24 06:41:38;;;;;;;2.15;1.10;;;;;;;19.23;46.48;102027.03;4951200;28;20042;-54
2022/01/24 06:44:04;;;;;;;1.88;1.17;;;;;;;19.27;46.34;102024.88;4967487;28;20053;-46
2022/01/24 06:46:30;;;;;;;2.15;1.25;;;;;;;19.29;46.33;102036.13;4968193;28;20444;-45
2022/01/24 06:48:56;;;;;;;1.77;1.10;;;;;;;19.31;46.34;102039.44;4952502;28;20047;-48
2022/01/24 06:51:22;;;;;;;2.42;0.98;;;;;;;19.32;46.33;102040.25;4956639;28;20494;-44
2022/01/24 06:53:48;;;;;;;4.75;1.30;;;;;;;19.33;46.20;102036.63;4949560;28;20456;-53
2022/01/24 06:56:14;;;;;;;2.28;1.38;;;;;;;19.35;46.29;102048.69;4963342;28;20027;-49
2022/01/24 06:58:41;;;;;;;2.30;1.10;;;;;;;19.38;46.31;102050.97;4964164;28;20039;-43
2022/01/24 07:01:07;;;;;;;2.58;1.10;;;;;;;19.40;46.29;102056.91;4963670;28;20031;-49
2022/01/24 07:03:33;;;;;;;1.67;1.27;;;;;;;19.41;46.35;102044.53;4967570;28;20027;-51
2022/01/24 07:05:59;;;;;;;1.35;1.08;;;;;;;19.42;46.29;102051.47;4965638;28;20037;-52
2022/01/24 07:08:25;;;;;;;1.85;0.75;;;;;;;19.40;46.24;102054.28;4967602;28;20035;-51
2022/01/24 07:10:51;;;;;;;1.30;0.90;;;;;;;19.41;46.30;102061.22;4952325;28;20547;-48
2022/01/24 07:13:17;;;;;;;1.65;1.08;;;;;;;19.40;46.13;102054.28;4954913;28;20260;-51
2022/01/24 07:15:53;;;;;;;2.15;1.13;;;;;;;19.39;46.24;102055.25;4950919;28;20166;-50
2022/01/24 07:20:54;;;;;;;2.53;1.00;;;;;;;19.37;46.23;102057.28;4961920;28;20322;-48
2022/01/24 07:23:20;;;;;;;1.60;0.90;;;;;;;19.36;46.25;102058.25;4970073;28;20412;-51
2022/01/24 07:25:46;;;;;;;2.03;1.30;;;;;;;19.36;46.22;102058.25;4962170;28;20541;-49
2022/01/24 07:28:13;;;;;;;2.38;1.10;;;;;;;19.37;46.21;102059.09;4969388;28;20027;-48
2022/01/24 07:30:38;;;;;;;2.25;0.85;;;;;;;19.35;46.25;102051.31;4961266;28;20125;-47
2022/01/24 07:33:04;;;;;;;2.13;1.05;;;;;;;19.35;46.10;102058.44;4968873;28;20118;-47
2022/01/24 07:35:29;;;;;;;1.45;0.85;;;;;;;19.33;46.02;102058.59;4967986;28;20454;-48
2022/01/24 07:37:55;;;;;;;1.85;0.77;;;;;;;19.34;46.10;102065.53;4964710;28;20039;-52
2022/01/24 07:40:22;;;;;;;3.63;0.93;;;;;;;19.33;46.41;102058.59;4967243;28;20085;-48
2022/01/24 07:42:57;;;;;;;5.35;1.10;;;;;;;19.34;46.47;102060.25;4959209;28;20031;-46
2022/01/24 07:45:25;;;;;;;6.95;1.10;;;;;;;19.35;46.87;102061.06;4967677;28;20038;-48
2022/01/24 07:47:51;;;;;;;4.53;0.80;;;;;;;19.34;46.71;102049.66;4971700;28;20030;-53
2022/01/24 07:50:24;;;;;;;4.20;0.85;;;;;;;19.34;46.76;102056.78;4988244;28;20308;-45
2022/01/24 07:52:49;;;;;;;1.65;0.80;;;;;;;19.33;46.76;102063.88;4983391;28;20057;-52
2022/01/24 07:55:15;;;;;;;3.83;1.00;;;;;;;19.33;46.64;102073.63;4954103;28;20034;-53
2022/01/24 07:57:40;;;;;;;1.83;0.98;;;;;;;19.31;46.50;102071.13;4933129;28;20062;-51
2022/01/24 08:00:10;;;;;;;2.55;1.02;;;;;;;19.32;46.57;102074.59;4950206;28;20035;-46
2022/01/24 08:02:37;;;;;;;5.28;0.80;;;;;;;19.32;46.49;102077.25;4962398;28;20062;-46
2022/01/24 08:05:04;;;;;;;1.80;0.77;;;;;;;19.31;46.39;102078.25;4954210;28;20038;-47
2022/01/24 08:07:29;;;;;;;1.95;1.10;;;;;;;19.26;46.45;102086.66;4959996;28;20058;-50
2022/01/24 08:09:55;;;;;;;4.45;0.90;;;;;;;19.26;47.33;102091.09;4963764;28;20065;-51
2022/01/24 08:12:20;;;;;;;6.18;1.17;;;;;;;19.25;47.22;102087.63;4963398;28;20042;-40
2022/01/24 08:14:46;;;;;;;5.40;1.17;;;;;;;19.27;47.71;102087.47;4948602;28;20081;-42
2022/01/24 08:17:11;;;;;;;3.70;0.98;;;;;;;19.27;47.66;102092.75;4938241;28;20027;-42
2022/01/24 08:19:37;;;;;;;2.50;1.23;;;;;;;19.27;47.67;102095.41;4957547;28;20494;-44
2022/01/24 08:22:04;;;;;;;2.10;1.08;;;;;;;19.27;47.97;102093.59;4957718;28;20031;-45
2022/01/24 08:24:30;;;;;;;3.35;1.00;;;;;;;19.29;47.97;102099.53;4949172;28;20171;-44
2022/01/24 08:26:55;;;;;;;4.50;0.95;;;;;;;19.29;48.03;102091.63;4966008;28;20042;-49
2022/01/24 08:29:21;;;;;;;2.15;0.85;;;;;;;19.27;48.33;102090.13;4955551;28;20038;-48
2022/01/24 08:31:46;;;;;;;4.32;0.90;;;;;;;19.25;48.44;102092.94;4959350;28;20134;-39
2022/01/24 08:34:12;;;;;;;5.13;1.15;;;;;;;19.22;48.32;102091.44;4956290;28;20038;-38
2022/01/24 08:36:38;;;;;;;2.70;0.80;;;;;;;19.21;48.45;102091.59;4964350;28;20019;-41
2022/01/24 08:39:08;;;;;;;8.73;1.60;;;;;;;19.21;48.41;102087.13;4963783;28;20118;-49
2022/01/24 08:41:44;;;;;;;6.22;0.90;;;;;;;19.20;48.63;102089.94;4962893;28;20031;-45
2022/01/24 08:46:54;;;;;;;4.30;0.60;;;;;;;19.15;48.38;102101.00;4957101;28;20146;-49
2022/01/24 08:49:19;;;;;;;6.32;1.25;;;;;;;19.13;48.23;102091.56;4955582;28;20121;-43
2022/01/24 08:51:45;;;;;;;2.17;0.65;;;;;;;19.10;47.87;102079.50;4953117;28;20030;-43
2022/01/24 08:54:13;;;;;;;3.80;0.80;;;;;;;19.09;48.19;102083.13;4952741;28;20085;-44
2022/01/24 08:56:39;;;;;;;3.30;0.88;;;;;;;19.11;48.09;102098.81;4941264;28;20445;-39
2022/01/24 08:59:05;;;;;;;4.20;1.17;;;;;;;19.10;48.30;102089.25;4959110;28;20468;-38
2022/01/24 09:01:31;;;;;;;7.35;0.73;;;;;;;19.09;48.07;102082.31;4943261;28;20394;-38
2022/01/24 09:03:57;;;;;;;3.40;1.10;;;;;;;19.09;47.95;102087.59;4963314;28;20043;-46
2022/01/24 09:06:22;;;;;;;4.72;1.15;;;;;;;19.09;47.96;102098.16;4957554;28;20023;-42
2022/01/24 09:08:55;;;;;;;2.72;1.42;;;;;;;19.09;47.83;102101.63;4949352;28;20506;-41
2022/01/24 09:11:29;;;;;;;4.03;0.80;;;;;;;19.06;48.10;102096.66;4946106;28;20035;-40
2022/01/24 09:13:56;;;;;;;7.30;0.95;;;;;;;19.08;47.95;102094.69;4981229;28;20085;-41
2022/01/24 09:16:22;;;;;;;5.25;1.52;;;;;;;19.08;47.89;102101.78;4970147;28;20030;-43
2022/01/24 09:18:48;;;;;;;3.60;1.05;;;;;;;19.09;47.77;102103.44;4969407;28;20430;-41
2022/01/24 09:21:13;;;;;;;3.28;0.90;;;;;;;19.08;47.79;102099.97;4941634;28;20086;-45
2022/01/24 09:23:39;;;;;;;4.53;0.82;;;;;;;19.08;47.89;102096.50;4957351;28;20485;-44
2022/01/24 09:26:04;;;;;;;3.05;0.90;;;;;;;19.10;47.64;102094.53;4958788;28;20049;-42
2022/01/24 09:28:30;;;;;;;2.17;0.88;;;;;;;19.09;47.53;102108.72;4949264;28;20062;-51
2022/01/24 09:30:57;;;;;;;4.22;0.80;;;;;;;19.07;47.56;102102.78;4955426;28;20083;-51
2022/01/24 09:33:23;;;;;;;2.78;0.77;;;;;;;19.03;47.45;102102.25;4945400;28;20445;-50
2022/01/24 09:35:49;;;;;;;3.47;0.70;;;;;;;19.03;47.45;102101.44;4954286;28;20043;-46
2022/01/24 09:38:16;;;;;;;2.90;1.00;;;;;;;19.00;47.36;102107.03;4963190;28;20411;-47
2022/01/24 09:40:42;;;;;;;3.35;1.00;;;;;;;18.98;47.45;102101.91;4949306;28;20671;-51
2022/01/24 09:43:07;;;;;;;3.05;0.80;;;;;;;18.98;47.46;102101.09;4958332;28;20031;-48
2022/01/24 09:45:33;;;;;;;2.17;1.08;;;;;;;18.98;48.16;102101.09;4960400;28;20520;-49
2022/01/24 09:47:58;;;;;;;3.15;1.02;;;;;;;19.02;49.19;102103.25;4961247;28;20042;-42
2022/01/24 09:50:24;;;;;;;3.03;0.73;;;;;;;19.06;48.52;102106.41;4958387;28;20096;-44
2022/01/24 09:52:50;;;;;;;3.20;1.10;;;;;;;19.06;48.37;102107.22;4958825;28;20034;-52
2022/01/24 09:55:19;;;;;;;4.70;1.33;;;;;;;19.05;48.52;102108.22;4954018;28;20031;-48
2022/01/24 09:57:49;;;;;;;3.75;0.77;;;;;;;19.03;48.27;102114.66;4951348;28;20026;-48
2022/01/24 10:00:19;;;;;;;2.45;0.82;;;;;;;19.00;48.22;102110.50;4943706;28;20027;-43
2022/01/24 10:02:46;;;;;;;2.60;1.17;;;;;;;19.00;48.03;102114.97;4946024;28;20134;-46
2022/01/24 10:05:19;;;;;;;3.90;1.00;;;;;;;18.97;47.98;102115.28;4966495;28;20035;-42
2022/01/24 10:07:56;;;;;;;2.00;0.75;;;;;;;18.96;47.98;102116.25;4953559;28;20058;-42
2022/01/24 10:10:26;;;;;;;5.28;1.05;;;;;;;18.97;47.90;102125.84;4966609;28;20030;-51
2022/01/24 10:18:05;;;;;;;2.45;0.80;;;;;;;18.99;48.26;102121.22;4967388;28;20136;-42
2022/01/24 10:20:41;;;;;;;1.83;0.80;;;;;;;18.98;48.07;102122.22;4963088;28;20201;-55
2022/01/24 10:23:11;;;;;;;7.60;1.15;;;;;;;18.99;47.99;102129.16;4952857;28;20397;-51
2022/01/24 10:26:02;;;;;;;3.83;0.82;;;;;;;18.97;47.83;102131.13;4969786;28;20053;-53
2022/01/24 10:28:37;;;;;;;11.10;1.27;;;;;;;18.97;47.70;102123.19;4952659;28;20027;-44
2022/01/24 10:31:04;;;;;;;2.70;0.95;;;;;;;18.97;47.79;102124.03;4952472;28;20171;-49
2022/01/24 10:33:30;;;;;;;1.90;0.98;;;;;;;18.98;47.70;102132.78;4961285;28;20039;-55
2022/01/24 10:35:56;;;;;;;2.97;0.93;;;;;;;18.97;47.66;102125.84;4954159;28;20328;-57
2022/01/24 10:38:41;;;;;;;1.38;0.50;;;;;;;18.95;47.70;102130.47;4957881;28;20027;-49
2022/01/24 10:43:46;;;;;;;1.75;0.60;;;;;;;18.88;47.83;102128.47;4961030;28;20062;-49
2022/01/24 10:46:13;;;;;;;2.30;0.88;;;;;;;18.86;47.83;102124.34;4961202;28;20147;-55
2022/01/24 10:48:42;;;;;;;1.58;0.70;;;;;;;18.85;47.74;102127.97;4938159;28;20117;-47
2022/01/24 10:51:12;;;;;;;2.90;0.70;;;;;;;18.84;48.27;102134.22;4948928;28;20441;-44
2022/01/24 10:53:45;;;;;;;2.92;0.90;;;;;;;18.84;48.35;102132.41;4962988;28;20077;-50
2022/01/24 10:56:29;;;;;;;2.95;0.80;;;;;;;18.82;48.21;102131.75;4937579;28;20042;-48
2022/01/24 10:59:13;;;;;;;9.02;1.38;;;;;;;18.82;47.89;102144.94;4965886;28;20035;-43
2022/01/24 11:01:40;;;;;;;27.67;3.03;;;;;;;18.77;46.74;102141.13;4942278;28;20069;-41
2022/01/24 11:04:14;;;;;;;35.50;3.65;;;;;;;18.72;46.55;102144.22;4945751;29;20447;-48
2022/01/24 11:06:42;;;;;;;14.40;2.00;;;;;;;18.73;46.68;102139.78;4955771;28;20096;-46
2022/01/24 11:09:41;;;;;;;20.27;3.58;;;;;;;18.70;47.03;102140.09;4951379;28;20030;-47
2022/01/24 11:12:12;;;;;;;62.05;6.15;;;;;;;18.80;52.36;102151.38;4953829;28;20039;-50
2022/01/24 11:14:44;;;;;;;27.27;3.53;;;;;;;18.92;55.26;102138.69;4964212;28;20038;-53
2022/01/24 11:17:13;;;;;;;16.92;2.70;;;;;;;18.95;55.66;102138.38;4932937;28;20940;-50
2022/01/24 11:19:43;;;;;;;17.80;2.75;;;;;;;18.93;55.86;102146.47;4953241;28;20491;-48
2022/01/24 11:22:21;;;;;;;19.88;3.35;;;;;;;18.89;55.41;102151.25;4947330;28;20042;-48
2022/01/24 11:25:00;;;;;;;19.52;2.00;;;;;;;18.88;54.65;102154.06;4945992;28;20051;-43
2022/01/24 11:27:27;;;;;;;22.77;2.60;;;;;;;18.84;53.28;102158.81;4940000;28;20034;-45
2022/01/24 11:29:55;;;;;;;17.45;2.60;;;;;;;18.85;53.00;102149.09;4963878;28;20045;-48
2022/01/24 11:32:26;;;;;;;13.93;2.75;;;;;;;18.84;52.87;102148.25;4942254;28;20042;-45
2022/01/24 11:34:54;;;;;;;14.15;2.40;;;;;;;18.88;52.39;102151.41;4940110;28;20891;-46
2022/01/24 11:37:45;;;;;;;15.57;2.90;;;;;;;18.87;52.32;102158.50;4959737;28;20618;-45
2022/01/24 11:40:12;;;;;;;14.48;2.25;;;;;;;18.90;51.82;102162.66;4957799;28;20430;-44
2022/01/24 11:42:40;;;;;;;9.70;2.45;;;;;;;18.90;51.51;102155.53;4961599;28;20031;-46
2022/01/24 11:45:13;;;;;;;13.25;2.25;;;;;;;18.87;51.13;102155.88;4958344;28;20126;-50
2022/01/24 11:47:40;;;;;;;12.07;2.22;;;;;;;18.85;51.00;102155.19;4970170;28;20118;-44
2022/01/24 11:50:26;;;;;;;8.43;1.48;;;;;;;18.78;50.67;102146.25;4956823;28;20035;-46
2022/01/24 11:52:54;;;;;;;8.60;2.05;;;;;;;18.80;51.02;102152.19;4942286;28;20248;-41
2022/01/24 11:55:34;;;;;;;9.65;1.80;;;;;;;18.78;51.32;102148.06;4957394;28;20045;-44
2022/01/24 11:58:07;;;;;;;10.38;1.65;;;;;;;18.80;51.11;102135.53;4942398;28;20027;-45
2022/01/24 12:00:39;;;;;;;12.05;1.70;;;;;;;18.80;51.23;102146.91;4960818;28;20169;-43
2022/01/24 12:03:26;;;;;;;9.40;1.80;;;;;;;18.78;51.17;102158.63;4939254;28;20700;-42
2022/01/24 12:05:53;;;;;;;13.98;2.17;;;;;;;18.77;50.73;102157.78;4953779;28;20074;-50
2022/01/24 12:08:33;;;;;;;7.47;1.60;;;;;;;18.74;50.17;102152.84;4945515;28;20049;-47
2022/01/24 12:11:12;;;;;;;8.73;2.20;;;;;;;18.70;50.06;102146.22;4965852;28;20439;-51
2022/01/24 12:13:48;;;;;;;13.13;1.83;;;;;;;18.70;49.67;102158.56;4975918;28;20046;-51
2022/01/24 12:16:15;;;;;;;7.78;2.60;;;;;;;18.70;49.46;102166.50;4976468;28;20050;-45
2022/01/24 12:18:42;;;;;;;6.25;2.20;;;;;;;18.69;49.18;102170.94;4979345;28;20030;-46
2022/01/24 12:21:09;;;;;;;8.15;2.38;;;;;;;18.69;49.13;102156.91;4981307;28;20038;-44
2022/01/24 12:23:42;;;;;;;7.30;2.08;;;;;;;18.67;49.04;102149.16;4981276;28;20086;-43
2022/01/24 12:26:09;;;;;;;7.18;1.85;;;;;;;18.68;48.94;102153.44;4982157;28;20031;-44
2022/01/24 12:28:44;;;;;;;7.85;2.20;;;;;;;18.66;48.87;102158.06;4982500;28;20117;-46
2022/01/24 12:31:31;;;;;;;8.30;2.17;;;;;;;18.62;48.89;102156.72;4963009;28;20398;-46
2022/01/24 12:34:04;;;;;;;8.27;2.45;;;;;;;18.63;48.63;102154.91;4962900;28;20384;-42
2022/01/24 12:36:39;;;;;;;6.55;2.28;;;;;;;18.62;48.42;102154.06;4962104;28;20034;-44
2022/01/24 12:39:13;;;;;;;8.13;2.60;;;;;;;18.62;48.38;102154.06;4963929;28;20033;-47
2022/01/24 12:41:46;;;;;;;10.77;1.88;;;;;;;18.62;49.04;102166.44;4970676;28;20081;-44
2022/01/24 12:46:17;;;;;;;7.97;1.88;;;;;;;18.63;48.79;102171.56;4962155;28;20039;-47
2022/01/24 12:46:57;;;;;;;4.97;1.95;;;;;;;18.62;48.68;102159.34;4980445;28;20151;-55
2022/01/24 12:49:23;;;;;;;7.90;2.20;;;;;;;18.61;48.07;102162.97;4983209;28;20122;-43
2022/01/24 12:51:49;;;;;;;4.93;2.08;;;;;;;18.61;48.03;102168.25;4984817;28;20037;-50
2022/01/24 12:54:16;;;;;;;5.57;2.20;;;;;;;18.57;47.93;102166.88;4963566;28;20125;-50
2022/01/24 12:56:42;;;;;;;7.15;2.63;;;;;;;18.56;47.92;102179.25;4983328;28;20562;-44
2022/01/24 12:59:08;;;;;;;15.15;2.92;;;;;;;18.65;49.06;102180.16;4983071;28;20035;-52
2022/01/24 13:01:41;;;;;;;7.97;3.00;;;;;;;18.88;50.33;102180.47;4954120;28;20620;-53
2022/01/24 13:04:12;;;;;;;6.85;2.58;;;;;;;19.13;50.78;102181.38;4980852;28;20035;-43
2022/01/24 13:06:43;;;;;;;9.40;3.10;;;;;;;19.31;51.15;102179.50;4972959;28;20035;-45
2022/01/24 13:09:15;;;;;;;16.90;4.32;;;;;;;19.54;54.81;102183.19;4973437;28;20161;-45
2022/01/24 13:12:10;;;;;;;37.72;11.52;;;;;;;19.95;61.12;102190.38;4969134;28;20033;-54
2022/01/24 13:14:46;;;;;;;143.50;33.17;;;;;;;20.16;59.90;102188.06;4940582;28;20035;-53
2022/01/24 13:25:30;;;;;;;74.85;24.75;;;;;;;20.48;64.91;102187.22;4957050;28;20042;-52
2022/01/24 13:28:01;;;;;;;59.75;19.63;;;;;;;20.20;62.47;102184.94;4946229;28;20023;-48
2022/01/24 13:30:41;;;;;;;55.28;17.83;;;;;;;19.94;60.08;102184.25;4948870;28;20046;-41